EDT,Max TemperatureF,Mean TemperatureF,Min TemperatureF,Max Dew PointF,MeanDew PointF,Min DewpointF,Max Humidity, Mean Humidity, Min Humidity, Max Sea Level PressureIn, Mean Sea Level PressureIn, Min Sea Level PressureIn, Max VisibilityMiles, Mean VisibilityMiles, Min VisibilityMiles, Max Wind SpeedMPH, Mean Wind SpeedMPH, Max Gust SpeedMPH,PrecipitationIn, CloudCover, Events, WindDirDegrees
2013-5-1,69,56,43,42,36,31,89,50,26,30.44,30.39,30.33,10,10,10,15,4,,0.00,0,,107
2013-5-2,71,56,41,45,42,39,93,61,36,30.47,30.40,30.32,10,10,10,12,4,,0.00,0,,132
2013-5-3,69,58,48,46,41,34,83,58,35,30.42,30.35,30.30,10,10,10,16,6,18,0.00,0,,121
2013-5-4,70,56,41,46,42,38,93,62,36,30.35,30.27,30.19,10,10,10,13,3,21,0.00,0,,122
2013-5-5,66,56,45,42,40,38,86,60,38,30.28,30.23,30.16,10,10,10,13,7,18,0.00,1,,111
2013-5-6,66,54,42,54,47,40,92,77,64,30.24,30.18,30.10,10,10,10,12,4,,0.00,5,,97
2013-5-7,71,62,55,61,56,51,90,82,61,30.11,30.06,30.01,10,9,4,14,8,,0.10,7,Rain,88
2013-5-8,72,63,53,59,57,51,100,86,51,30.03,29.97,29.90,10,8,1,10,5,,0.54,7,Rain-Thunderstorm,112
2013-5-9,71,59,48,58,53,48,100,90,63,29.99,29.95,29.93,10,5,0,7,1,,0.08,5,Fog-Rain,261
2013-5-10,78,64,51,64,57,50,100,82,43,30.01,29.97,29.88,10,6,0,17,3,25,0.55,2,Fog-Rain-Thunderstorm,257
2013-5-11,73,67,62,64,61,55,94,86,70,29.82,29.77,29.72,10,9,4,9,3,,0.19,7,Rain,230
2013-5-12,60,55,46,55,35,25,93,49,27,30.02,29.86,29.75,10,10,10,21,10,29,0.00,2,,288
2013-5-13,55,48,41,32,27,22,70,47,29,30.18,30.08,30.01,10,10,10,18,8,26,0.00,3,,282
2013-5-14,62,47,33,46,30,22,83,52,24,30.22,30.14,30.06,10,10,10,10,5,18,0.01,2,Rain,263
2013-5-15,75,63,51,60,52,44,93,73,53,30.05,29.86,29.70,10,10,7,10,4,,0.04,4,Rain,131
2013-5-16,84,70,57,63,56,45,100,68,27,29.91,29.80,29.74,10,7,2,15,3,17,0.10,2,Rain,275
2013-5-17,75,64,52,48,43,38,83,44,31,30.17,30.08,29.94,10,10,10,10,5,,0.00,2,,13
2013-5-18,69,64,59,58,53,45,96,75,48,30.25,30.23,30.18,10,8,2,10,6,,0.02,8,Rain,126
2013-5-19,64,60,57,63,59,57,100,94,87,30.24,30.19,30.13,10,6,1,9,6,,0.02,8,Rain,107
2013-5-20,82,70,60,66,63,61,100,86,56,30.13,30.06,29.96,10,5,0,10,4,,0.03,6,Fog-Rain,92
2013-5-21,87,74,62,71,66,61,100,80,51,29.99,29.93,29.84,10,7,0,10,2,17,0.00,2,Fog,209
2013-5-22,89,77,66,69,65,60,97,71,43,29.91,29.86,29.79,10,9,3,22,4,34,0.03,2,Rain-Thunderstorm,237
2013-5-23,78,70,62,66,64,61,100,83,62,29.88,29.83,29.72,10,9,1,15,4,32,0.29,6,Rain-Thunderstorm,203
2013-5-24,63,56,48,61,46,32,93,73,51,30.13,29.94,29.73,10,9,4,18,10,28,0.07,7,Rain,311
2013-5-25,66,56,46,34,31,25,61,41,22,30.14,30.11,30.05,10,10,10,21,13,32,0.00,1,,309
2013-5-26,71,58,46,39,35,30,69,43,22,30.23,30.15,30.11,10,10,10,16,9,25,0.00,0,,288
2013-5-27,71,56,42,46,41,36,89,55,31,30.29,30.24,30.18,10,10,10,10,3,,0.00,0,,239
2013-5-28,66,60,55,63,58,47,94,89,62,30.22,30.14,30.09,10,4,2,7,3,,0.37,7,Rain,96
2013-5-29,88,74,62,67,63,61,100,79,43,30.11,30.08,30.03,10,5,0,12,3,20,0.00,5,Fog,243
2013-5-30,91,76,63,68,64,61,93,67,39,30.17,30.13,30.09,10,10,6,9,2,,0.00,0,,252
2013-5-31,91,78,66,68,64,57,93,63,34,30.14,30.07,30.00,10,9,4,10,3,17,0.00,0,,201